Warner, Oklahoma
Current Conditions -  °F | °C
As of 9:53 AM on Friday 21 Nov 2014 (Local Time) from KMKO Reporting Station
Overcast Overcast  
Wind Chill: 51°   Ceiling: 1200
Heat Index: 51°   Visibility: 10mi
Dew Point: 42°   Wind: 14mph
Humidity: 71%   Direction: 140°SE
Pressure: 30.18"   Gusts: NA
Location:  35.49°N, 95.31°W
Report Text: KMKO 211553Z AUTO 14012KT 10SM OVC012 11/06 A3018 RMK AO2 SLP220 T01060056
Loading
Personal Weather Stations






























Interactive Weather Map New forecast layout! Learn more

10-Day Weather Forecast

Advertisements
Track Severe Weather on mobile